Time;durP1;ratioP1;P1;durP2;ratioP2;P2;SDS_P1;SDS_P2;PMS_P1;PMS_P2;Temp;Humidity;BMP_temperature;BMP_pressure;BME280_temperature;BME280_humidity;BME280_pressure;Samples;Min_cycle;Max_cycle;Signal;HPM_P1;HPM_P2
2020/12/18 00:00:52;;;;;;;155.05;77.53;;;;;;;1.23;100.00;99894.25;2090199;28;20223;-77
2020/12/18 00:01:53;;;;;;;155.00;77.77;;;;;;;1.21;100.00;99898.88;2096985;28;20249;-78
2020/12/18 00:02:54;;;;;;;160.52;78.65;;;;;;;1.18;100.00;99889.63;2105109;28;20635;-78
2020/12/18 00:03:56;;;;;;;156.17;77.03;;;;;;;1.16;100.00;99889.03;2105306;28;20233;-78
2020/12/18 00:04:57;;;;;;;159.80;78.60;;;;;;;1.09;100.00;99883.81;2106027;28;20233;-78
2020/12/18 00:05:58;;;;;;;163.23;79.60;;;;;;;1.13;100.00;99890.28;2105875;28;20248;-78
2020/12/18 00:06:59;;;;;;;162.75;80.30;;;;;;;1.11;100.00;99894.09;2100279;28;20730;-79
2020/12/18 00:08:00;;;;;;;174.23;78.83;;;;;;;1.08;100.00;99886.66;2091396;28;20614;-83
2020/12/18 00:09:02;;;;;;;165.05;79.35;;;;;;;1.10;100.00;99892.50;2088937;28;20581;-82
2020/12/18 00:10:03;;;;;;;156.65;78.50;;;;;;;1.07;100.00;99891.13;2092032;28;20230;-84
2020/12/18 00:11:04;;;;;;;156.18;77.32;;;;;;;1.09;100.00;99889.06;2088385;28;20253;-82
2020/12/18 00:12:05;;;;;;;168.60;79.57;;;;;;;1.05;100.00;99887.91;2098589;28;20305;-79
2020/12/18 00:13:07;;;;;;;170.70;80.93;;;;;;;1.07;100.00;99880.59;2105989;28;20225;-80
2020/12/18 00:14:09;;;;;;;160.90;80.50;;;;;;;1.08;100.00;99897.97;2100668;28;20233;-77
2020/12/18 00:15:10;;;;;;;166.27;80.45;;;;;;;1.06;100.00;99892.13;2101052;28;20229;-81
2020/12/18 00:16:11;;;;;;;162.27;82.63;;;;;;;1.08;100.00;99897.97;2100731;28;20233;-80
2020/12/18 00:17:12;;;;;;;154.63;78.13;;;;;;;1.12;100.00;99896.53;2100817;28;20233;-79
2020/12/18 00:18:13;;;;;;;165.63;80.37;;;;;;;1.11;100.00;99896.75;2105865;28;20304;-81
2020/12/18 00:19:14;;;;;;;161.95;79.20;;;;;;;1.07;100.00;99891.13;2107397;28;20286;-83
2020/12/18 00:20:15;;;;;;;155.77;74.73;;;;;;;1.17;100.00;99900.34;2105737;28;20229;-84
2020/12/18 00:21:17;;;;;;;156.57;77.13;;;;;;;1.20;100.00;99894.66;2101061;28;20260;-84
2020/12/18 00:22:18;;;;;;;152.88;77.22;;;;;;;1.16;100.00;99889.03;2096937;28;20227;-78
2020/12/18 00:23:19;;;;;;;158.15;76.70;;;;;;;1.15;100.00;99886.63;2105078;28;20275;-84
2020/12/18 00:24:20;;;;;;;159.17;76.70;;;;;;;1.18;100.00;99901.94;2111934;27;20311;-78
2020/12/18 00:25:21;;;;;;;157.65;76.82;;;;;;;1.13;100.00;99899.97;2113394;28;20216;-81
2020/12/18 00:26:22;;;;;;;152.47;74.80;;;;;;;1.11;100.00;99902.78;2114120;28;20798;-81
2020/12/18 00:27:22;;;;;;;154.02;76.18;;;;;;;1.13;100.00;99900.78;2109378;28;20236;-79
2020/12/18 00:28:23;;;;;;;146.43;70.60;;;;;;;1.11;100.00;99900.16;2116304;28;20227;-80
2020/12/18 00:29:25;;;;;;;149.25;73.20;;;;;;;1.09;100.00;99894.31;2115910;28;20221;-80
2020/12/18 00:30:26;;;;;;;147.98;73.93;;;;;;;1.08;100.00;99897.97;2106202;28;20232;-80
2020/12/18 00:31:27;;;;;;;147.57;71.57;;;;;;;1.05;100.00;99897.59;2114581;28;20232;-80
2020/12/18 00:32:28;;;;;;;150.13;73.63;;;;;;;0.90;100.00;99869.00;2106430;28;20304;-80
2020/12/18 00:33:29;;;;;;;148.90;73.63;;;;;;;1.01;100.00;99891.97;2105643;28;20228;-81
2020/12/18 00:34:30;;;;;;;145.30;72.00;;;;;;;1.02;100.00;99885.69;2105973;28;20224;-81
2020/12/18 00:35:31;;;;;;;146.73;70.45;;;;;;;1.11;100.00;99896.75;2103435;28;20222;-81
2020/12/18 00:36:32;;;;;;;131.10;66.97;;;;;;;1.17;100.00;99890.63;2097906;28;20308;-81
2020/12/18 00:37:33;;;;;;;142.13;71.47;;;;;;;1.19;100.00;99893.03;2105947;28;20225;-80
2020/12/18 00:38:34;;;;;;;142.87;67.93;;;;;;;1.20;100.00;99892.03;2109643;28;20233;-81
2020/12/18 00:39:35;;;;;;;135.13;69.22;;;;;;;1.21;100.00;99893.63;2105543;28;20602;-81
2020/12/18 00:40:37;;;;;;;136.57;66.77;;;;;;;1.25;100.00;99892.19;2105593;28;20217;-81
2020/12/18 00:41:37;;;;;;;134.88;67.35;;;;;;;1.18;100.00;99873.84;2105353;28;20232;-79
2020/12/18 00:42:38;;;;;;;121.83;59.80;;;;;;;1.29;100.00;99902.06;2105217;28;20241;-80
2020/12/18 00:43:39;;;;;;;119.35;60.40;;;;;;;1.37;100.00;99890.47;2096858;28;20775;-80
2020/12/18 00:44:42;;;;;;;128.70;63.53;;;;;;;1.32;100.00;99895.59;2105329;28;20623;-81
2020/12/18 00:45:43;;;;;;;122.50;61.22;;;;;;;1.31;100.00;99897.41;2114689;28;20220;-81
2020/12/18 00:46:46;;;;;;;123.97;61.30;;;;;;;1.40;100.00;99901.38;2114303;28;20253;-81
2020/12/18 00:47:47;;;;;;;122.13;61.03;;;;;;;1.35;100.00;99898.56;2105493;28;20458;-80
2020/12/18 00:48:48;;;;;;;119.80;62.17;;;;;;;1.41;100.00;99896.91;2105790;28;20227;-80
2020/12/18 00:49:49;;;;;;;121.45;60.60;;;;;;;1.45;100.00;99897.28;2115323;28;20224;-80
2020/12/18 00:50:51;;;;;;;132.20;64.87;;;;;;;1.46;100.00;99904.94;2106069;28;20220;-82
2020/12/18 00:51:52;;;;;;;127.18;62.30;;;;;;;1.46;100.00;99899.69;2106403;28;20231;-81
2020/12/18 00:52:54;;;;;;;123.85;61.78;;;;;;;1.47;100.00;99916.28;2105922;28;20568;-82
2020/12/18 00:53:54;;;;;;;119.70;61.20;;;;;;;1.44;100.00;99917.50;2097656;28;20226;-82
2020/12/18 00:54:56;;;;;;;116.90;61.37;;;;;;;1.35;100.00;99909.09;2097060;28;20297;-82
2020/12/18 00:55:59;;;;;;;120.90;60.38;;;;;;;1.36;100.00;99910.69;2098524;28;20225;-83
2020/12/18 00:57:00;;;;;;;120.70;59.35;;;;;;;1.42;100.00;99917.72;2106369;28;20270;-83
2020/12/18 00:58:01;;;;;;;129.05;64.00;;;;;;;1.41;100.00;99913.50;2097910;28;20308;-81
2020/12/18 00:59:03;;;;;;;122.07;63.90;;;;;;;1.35;100.00;99913.53;2106469;28;20226;-81
2020/12/18 01:00:05;;;;;;;122.85;61.20;;;;;;;1.45;100.00;99924.38;2106305;28;20222;-81
2020/12/18 01:01:26;;;;;;;137.13;70.80;;;;;;;1.50;100.00;99919.28;2109159;27;20228;-81
2020/12/18 01:02:27;;;;;;;143.85;72.72;;;;;;;1.48;100.00;99917.88;2114652;28;20228;-80
2020/12/18 01:03:29;;;;;;;142.47;69.63;;;;;;;1.27;100.00;99890.97;2105348;28;20228;-80
2020/12/18 01:04:29;;;;;;;146.82;70.70;;;;;;;1.42;100.00;99914.31;2114501;28;20217;-81
2020/12/18 01:05:31;;;;;;;151.23;75.40;;;;;;;1.39;100.00;99914.72;2114655;28;20227;-81
2020/12/18 01:06:32;;;;;;;132.18;68.10;;;;;;;1.45;100.00;99919.13;2106386;28;20749;-81
2020/12/18 01:07:36;;;;;;;134.15;68.10;;;;;;;1.43;100.00;99910.66;2106047;28;20232;-80
2020/12/18 01:08:37;;;;;;;144.77;71.45;;;;;;;1.43;100.00;99913.28;2114324;28;20240;-77
2020/12/18 01:09:38;;;;;;;152.03;74.30;;;;;;;1.41;100.00;99902.97;2106559;28;20240;-79
2020/12/18 01:10:41;;;;;;;154.48;76.88;;;;;;;1.41;100.00;99905.63;2106381;28;20270;-81
2020/12/18 01:11:42;;;;;;;147.33;74.37;;;;;;;1.46;100.00;99912.84;2114914;28;20254;-81
2020/12/18 01:12:48;;;;;;;151.75;75.70;;;;;;;1.40;100.00;99908.47;2106968;28;20296;-81
2020/12/18 01:13:48;;;;;;;137.98;70.55;;;;;;;1.46;100.00;99922.56;2106938;28;20222;-81
2020/12/18 01:14:50;;;;;;;145.40;73.50;;;;;;;1.44;100.00;99922.78;2106582;28;20221;-81
2020/12/18 01:15:52;;;;;;;133.32;65.70;;;;;;;1.43;100.00;99918.53;2106351;28;20225;-81
2020/12/18 01:17:03;;;;;;;130.50;61.88;;;;;;;1.47;100.00;99926.78;2107621;28;20221;-81
2020/12/18 01:18:04;;;;;;;124.70;61.53;;;;;;;1.46;100.00;99920.72;2106557;28;20249;-81
2020/12/18 01:19:05;;;;;;;124.13;61.90;;;;;;;1.52;100.00;99916.44;2115020;28;20803;-81
2020/12/18 01:20:10;;;;;;;117.60;61.80;;;;;;;1.58;100.00;99918.22;2106573;28;20218;-80
2020/12/18 01:21:12;;;;;;;125.73;63.80;;;;;;;1.53;100.00;99915.41;2120379;28;20232;-80
2020/12/18 01:22:15;;;;;;;115.88;58.50;;;;;;;1.67;100.00;99932.69;2114771;28;20276;-79
2020/12/18 01:23:20;;;;;;;121.50;59.60;;;;;;;1.65;100.00;99930.28;2122390;28;20280;-78
2020/12/18 01:24:26;;;;;;;135.10;63.55;;;;;;;1.62;100.00;99920.19;2117531;28;20209;-79
2020/12/18 01:25:31;;;;;;;120.97;59.88;;;;;;;1.60;100.00;99924.88;2109038;28;20222;-80
2020/12/18 01:26:32;;;;;;;126.22;61.50;;;;;;;1.57;100.00;99912.16;2119889;28;20221;-80
2020/12/18 01:27:34;;;;;;;118.10;59.90;;;;;;;1.60;100.00;99910.91;2108703;28;20218;-80
2020/12/18 01:28:34;;;;;;;122.30;57.97;;;;;;;1.69;100.00;99917.50;2111318;28;20220;-80
2020/12/18 01:29:36;;;;;;;118.53;58.37;;;;;;;1.80;100.00;99926.50;2119203;28;20220;-80
2020/12/18 01:30:37;;;;;;;117.82;61.30;;;;;;;1.77;100.00;99921.69;2118755;28;20217;-75
2020/12/18 01:31:39;;;;;;;120.93;60.30;;;;;;;1.79;100.00;99922.25;2119788;28;20239;-79
2020/12/18 01:32:41;;;;;;;118.70;59.25;;;;;;;1.84;100.00;99936.38;2119169;28;20690;-78
2020/12/18 01:33:43;;;;;;;118.33;59.37;;;;;;;1.86;100.00;99925.66;2118664;28;20258;-80
2020/12/18 01:34:54;;;;;;;120.20;59.47;;;;;;;1.86;100.00;99923.81;2111757;28;20444;-80
2020/12/18 01:35:58;;;;;;;118.10;59.25;;;;;;;1.73;100.00;99921.28;2110345;28;20224;-81
2020/12/18 01:36:59;;;;;;;118.35;59.05;;;;;;;1.75;100.00;99924.53;2118513;28;20221;-81
2020/12/18 01:38:15;;;;;;;129.25;60.53;;;;;;;1.74;100.00;99912.41;2117662;28;20236;-80
2020/12/18 01:39:17;;;;;;;123.82;61.50;;;;;;;1.67;100.00;99907.22;2109634;28;20224;-80
2020/12/18 01:40:19;;;;;;;134.60;62.90;;;;;;;1.59;100.00;99906.69;2108188;28;20213;-80
2020/12/18 01:41:20;;;;;;;126.88;62.28;;;;;;;1.73;100.00;99920.50;2109408;28;20281;-80
2020/12/18 01:42:22;;;;;;;127.50;63.97;;;;;;;1.70;100.00;99919.09;2113475;28;20244;-80
2020/12/18 01:43:23;;;;;;;122.80;59.25;;;;;;;1.69;100.00;99913.03;2121431;28;20250;-76
2020/12/18 01:44:24;;;;;;;130.15;61.63;;;;;;;1.62;100.00;99912.28;2121329;28;20236;-78
2020/12/18 01:45:28;;;;;;;114.75;59.88;;;;;;;1.66;100.00;99917.94;2113902;28;20268;-81
2020/12/18 01:46:40;;;;;;;115.05;58.83;;;;;;;1.68;100.00;99927.22;2113901;28;20245;-76
2020/12/18 01:47:42;;;;;;;121.72;59.33;;;;;;;1.75;100.00;99915.84;2122481;28;20220;-76
2020/12/18 01:48:43;;;;;;;119.68;59.97;;;;;;;1.81;100.00;99925.47;2130591;28;20234;-81
2020/12/18 01:49:46;;;;;;;112.63;57.22;;;;;;;1.87;100.00;99924.63;2120613;28;20220;-80
2020/12/18 01:50:48;;;;;;;117.10;57.97;;;;;;;1.83;100.00;99926.88;2113697;28;20227;-80
2020/12/18 01:51:51;;;;;;;121.10;60.63;;;;;;;1.81;100.00;99922.84;2112434;28;20217;-80
2020/12/18 01:53:13;;;;;;;116.68;57.17;;;;;;;1.75;100.00;99913.22;2124668;28;21780;-79
2020/12/18 01:54:26;;;;;;;116.63;58.78;;;;;;;1.79;100.00;99930.16;2120858;28;20235;-76
2020/12/18 01:55:28;;;;;;;110.50;57.93;;;;;;;1.77;100.00;99926.94;2120797;28;20208;-81
2020/12/18 01:56:29;;;;;;;119.05;60.95;;;;;;;1.78;100.00;99926.72;2115409;28;20232;-81
2020/12/18 01:57:56;;;;;;;110.10;55.22;;;;;;;1.81;100.00;99930.75;2111769;28;20220;-81
2020/12/18 01:59:03;;;;;;;109.93;57.75;;;;;;;1.76;100.00;99920.88;2116875;28;20664;-81
2020/12/18 02:00:31;;;;;;;119.55;58.58;;;;;;;1.78;100.00;99918.84;2116086;27;20237;-80
2020/12/18 02:01:34;;;;;;;110.32;55.72;;;;;;;1.83;100.00;99928.72;2116791;28;20237;-81
2020/12/18 02:02:53;;;;;;;108.30;56.35;;;;;;;1.86;100.00;99920.38;2111246;28;20221;-81
2020/12/18 02:04:15;;;;;;;109.95;55.30;;;;;;;1.85;100.00;99918.78;2119484;27;20247;-79
2020/12/18 02:05:22;;;;;;;104.53;54.97;;;;;;;1.88;100.00;99923.59;2116609;28;20227;-74
2020/12/18 02:06:25;;;;;;;108.38;55.63;;;;;;;1.88;100.00;99913.06;2117491;28;20220;-79
2020/12/18 02:07:36;;;;;;;105.47;55.50;;;;;;;1.83;100.00;99920.81;2117314;28;20220;-81
2020/12/18 02:08:58;;;;;;;111.20;53.97;;;;;;;1.80;100.00;99915.97;2120134;27;20265;-81
2020/12/18 02:10:02;;;;;;;110.28;53.83;;;;;;;1.79;100.00;99898.59;2118244;28;20231;-81
2020/12/18 02:11:12;;;;;;;99.32;52.95;;;;;;;1.84;100.00;99914.53;2110297;28;20569;-81
2020/12/18 02:12:13;;;;;;;106.57;56.10;;;;;;;1.86;100.00;99915.13;2118405;28;20221;-81
2020/12/18 02:13:20;;;;;;;102.68;53.72;;;;;;;1.87;100.00;99909.63;2118448;28;20695;-82
2020/12/18 02:14:21;;;;;;;109.00;53.75;;;;;;;1.85;100.00;99908.25;2109559;28;20597;-81
2020/12/18 02:15:29;;;;;;;107.20;54.35;;;;;;;1.87;100.00;99906.19;2110814;28;20225;-81
2020/12/18 02:16:50;;;;;;;109.85;54.72;;;;;;;1.88;100.00;99910.44;2099379;28;20556;-81
2020/12/18 02:18:09;;;;;;;97.38;52.22;;;;;;;1.83;100.00;99912.94;2118483;28;20605;-80
2020/12/18 02:19:12;;;;;;;102.90;52.83;;;;;;;1.88;100.00;99907.81;2119662;28;20224;-81
2020/12/18 02:20:16;;;;;;;112.45;54.35;;;;;;;1.91;100.00;99916.09;2118510;28;20230;-81
2020/12/18 02:21:20;;;;;;;103.72;51.78;;;;;;;1.93;100.00;99911.41;2112109;28;20228;-81
2020/12/18 02:22:23;;;;;;;100.80;52.80;;;;;;;1.92;100.00;99914.25;2118920;28;20227;-81
2020/12/18 02:23:40;;;;;;;104.57;53.70;;;;;;;1.91;100.00;99912.63;2113021;28;20703;-80
2020/12/18 02:24:49;;;;;;;94.00;51.03;;;;;;;1.96;100.00;99915.41;2119193;28;20229;-81
2020/12/18 02:26:02;;;;;;;97.90;51.90;;;;;;;1.97;100.00;99928.34;2111619;28;20248;-81
2020/12/18 02:27:03;;;;;;;97.55;50.65;;;;;;;2.01;100.00;99923.47;2112469;28;20220;-80
2020/12/18 02:28:06;;;;;;;94.35;50.75;;;;;;;1.97;100.00;99923.09;2110288;28;20617;-80
2020/12/18 02:29:07;;;;;;;96.75;51.65;;;;;;;1.94;100.00;99917.47;2110530;28;20226;-77
2020/12/18 02:30:19;;;;;;;88.72;51.65;;;;;;;1.93;100.00;99921.13;2111723;28;20271;-80
2020/12/18 02:31:40;;;;;;;101.25;50.22;;;;;;;1.98;100.00;99922.06;2076562;28;20228;-81
2020/12/18 02:32:58;;;;;;;98.70;52.72;;;;;;;1.95;100.00;99919.88;2118643;28;20266;-81
2020/12/18 02:33:59;;;;;;;100.50;50.58;;;;;;;1.97;100.00;99919.66;2110845;28;20224;-81
2020/12/18 02:35:05;;;;;;;95.65;49.55;;;;;;;1.99;100.00;99920.22;2111566;28;20245;-81
2020/12/18 02:36:10;;;;;;;103.93;51.55;;;;;;;1.90;100.00;99905.75;2118468;28;20275;-81
2020/12/18 02:37:11;;;;;;;101.27;50.07;;;;;;;1.96;100.00;99920.69;2111382;28;20260;-81
2020/12/18 02:38:13;;;;;;;96.75;50.55;;;;;;;1.83;100.00;99905.03;2117339;28;20634;-81
2020/12/18 02:39:15;;;;;;;100.68;50.75;;;;;;;2.03;100.00;99926.69;2117659;28;20589;-81
2020/12/18 02:40:19;;;;;;;98.15;50.53;;;;;;;2.02;100.00;99922.44;2117763;28;20227;-82
2020/12/18 02:42:00;;;;;;;100.38;51.10;;;;;;;1.89;100.00;99909.41;2075376;28;20266;-82
2020/12/18 02:43:13;;;;;;;101.40;49.40;;;;;;;1.94;100.00;99920.09;2066267;28;20292;-82
2020/12/18 02:44:16;;;;;;;97.63;48.40;;;;;;;1.96;100.00;99921.47;2058474;28;20224;-81
2020/12/18 02:45:37;;;;;;;98.10;51.40;;;;;;;1.90;100.00;99916.28;2069204;28;20254;-80
2020/12/18 02:46:49;;;;;;;103.07;51.83;;;;;;;1.89;100.00;99925.19;2059378;28;20297;-81
2020/12/18 02:47:50;;;;;;;97.35;51.83;;;;;;;1.94;100.00;99933.25;2084720;28;20218;-81
2020/12/18 02:49:06;;;;;;;103.85;52.50;;;;;;;1.87;100.00;99919.34;2101837;28;20297;-83
2020/12/18 02:50:16;;;;;;;109.85;55.63;;;;;;;1.92;100.00;99924.78;2101348;28;20222;-80
2020/12/18 02:51:24;;;;;;;108.43;54.00;;;;;;;1.86;100.00;99915.13;2107044;28;20607;-80
2020/12/18 02:53:12;;;;;;;118.03;55.47;;;;;;;1.99;100.00;99922.88;2094415;28;20244;-83
2020/12/18 02:54:32;;;;;;;105.95;54.58;;;;;;;1.95;100.00;99925.13;2083088;28;20223;-83
2020/12/18 02:55:47;;;;;;;112.50;55.45;;;;;;;1.88;100.00;99916.50;2076587;28;20584;-81
2020/12/18 02:56:57;;;;;;;105.82;55.65;;;;;;;1.82;100.00;99908.66;2075946;28;20566;-80
2020/12/18 02:58:20;;;;;;;107.43;54.65;;;;;;;1.83;100.00;99910.31;2080859;28;20699;-81
2020/12/18 02:59:24;;;;;;;106.10;55.90;;;;;;;1.72;100.00;99893.38;2117479;27;20248;-83
2020/12/18 03:00:28;;;;;;;115.65;56.25;;;;;;;1.81;100.00;99917.59;2126609;27;20309;-81
2020/12/18 03:01:29;;;;;;;114.10;58.40;;;;;;;1.79;100.00;99912.53;2126389;27;20220;-81
2020/12/18 03:02:31;;;;;;;119.90;58.00;;;;;;;1.77;100.00;99906.72;2116855;28;20244;-82
2020/12/18 03:03:33;;;;;;;120.88;59.47;;;;;;;1.76;100.00;99912.19;2116696;28;20698;-82
2020/12/18 03:05:00;;;;;;;104.18;55.65;;;;;;;1.76;100.00;99912.19;2093051;27;20222;-82
2020/12/18 03:06:15;;;;;;;105.25;53.92;;;;;;;1.75;100.00;99907.94;2116091;28;20227;-83
2020/12/18 03:07:22;;;;;;;108.28;55.03;;;;;;;1.73;100.00;99908.16;2108211;28;20225;-80
2020/12/18 03:08:23;;;;;;;104.35;53.80;;;;;;;1.81;100.00;99904.44;2107700;28;20584;-84
2020/12/18 03:09:25;;;;;;;105.03;52.87;;;;;;;1.81;100.00;99907.88;2107267;28;20313;-81
2020/12/18 03:10:26;;;;;;;102.30;55.30;;;;;;;1.75;100.00;99907.94;2115946;27;20993;-81
2020/12/18 03:11:27;;;;;;;103.03;55.30;;;;;;;1.73;100.00;99900.25;2115403;28;20665;-80
2020/12/18 03:12:29;;;;;;;101.45;53.97;;;;;;;1.72;100.00;99906.53;2107216;28;20217;-81
2020/12/18 03:13:32;;;;;;;104.23;53.17;;;;;;;1.76;100.00;99914.81;2106590;28;20212;-81
2020/12/18 03:14:33;;;;;;;98.53;53.60;;;;;;;1.68;100.00;99902.75;2107438;28;20217;-81
2020/12/18 03:15:41;;;;;;;99.30;52.90;;;;;;;1.78;100.00;99908.31;2108724;28;20222;-81
2020/12/18 03:16:58;;;;;;;97.63;52.13;;;;;;;1.77;100.00;99909.34;2112420;28;20294;-81
2020/12/18 03:18:09;;;;;;;100.28;52.03;;;;;;;1.77;100.00;99911.97;2111664;28;20229;-81
2020/12/18 03:19:11;;;;;;;97.25;52.67;;;;;;;1.82;100.00;99917.38;2108375;28;20229;-82
2020/12/18 03:20:13;;;;;;;110.55;55.05;;;;;;;1.79;100.00;99924.91;2111493;28;20240;-82
2020/12/18 03:21:23;;;;;;;105.72;54.38;;;;;;;1.81;100.00;99928.91;2103678;28;20222;-80
2020/12/18 03:22:48;;;;;;;104.22;55.38;;;;;;;1.80;100.00;99923.88;2111583;28;20224;-81
2020/12/18 03:24:27;;;;;;;100.03;51.55;;;;;;;1.82;100.00;99919.19;2124044;27;20228;-80
2020/12/18 03:25:50;;;;;;;96.57;52.15;;;;;;;1.82;100.00;99927.09;2119339;28;20245;-82
2020/12/18 03:27:01;;;;;;;97.80;53.47;;;;;;;1.80;100.00;99921.25;2112045;28;20221;-82
2020/12/18 03:28:07;;;;;;;100.55;52.55;;;;;;;1.82;100.00;99919.19;2113492;28;20236;-78
2020/12/18 03:29:10;;;;;;;101.85;54.28;;;;;;;1.87;100.00;99932.50;2110387;28;20289;-80
2020/12/18 03:30:11;;;;;;;104.72;52.33;;;;;;;1.87;100.00;99930.69;2109401;28;20233;-80
2020/12/18 03:31:13;;;;;;;99.13;51.63;;;;;;;1.77;100.00;99911.16;2112291;28;20299;-80
2020/12/18 03:32:13;;;;;;;100.38;54.50;;;;;;;1.85;100.00;99918.78;2112835;28;20220;-81
2020/12/18 03:33:22;;;;;;;99.93;52.35;;;;;;;1.85;100.00;99909.06;2112802;28;20225;-80
2020/12/18 03:34:24;;;;;;;100.30;52.08;;;;;;;1.92;100.00;99930.84;2104669;28;20218;-77
2020/12/18 03:35:32;;;;;;;101.07;52.00;;;;;;;1.88;100.00;99926.22;2111778;28;20247;-80
2020/12/18 03:36:36;;;;;;;107.05;52.58;;;;;;;1.91;100.00;99925.78;2114807;28;20231;-81
2020/12/18 03:37:38;;;;;;;100.15;53.00;;;;;;;1.93;100.00;99936.91;2113522;28;20589;-77
2020/12/18 03:38:41;;;;;;;103.15;53.30;;;;;;;1.90;100.00;99932.88;2113821;28;20217;-81
2020/12/18 03:39:42;;;;;;;108.17;55.23;;;;;;;1.84;100.00;99919.81;2113966;28;20233;-80
2020/12/18 03:41:11;;;;;;;103.20;52.78;;;;;;;1.89;100.00;99927.84;2108648;28;20234;-80
2020/12/18 03:42:14;;;;;;;109.32;55.55;;;;;;;1.89;100.00;99933.91;2114263;28;20217;-79
2020/12/18 03:43:15;;;;;;;115.47;55.63;;;;;;;1.91;100.00;99933.66;2105983;28;20230;-81
2020/12/18 03:44:18;;;;;;;111.70;55.20;;;;;;;1.91;100.00;99925.78;2114129;28;20228;-81
2020/12/18 03:45:19;;;;;;;114.53;56.45;;;;;;;2.01;100.00;99931.38;2106266;28;20456;-81
2020/12/18 03:46:26;;;;;;;106.40;53.88;;;;;;;2.01;100.00;99928.75;2113866;28;20236;-80
2020/12/18 03:47:50;;;;;;;96.65;52.97;;;;;;;2.04;100.00;99933.56;2117362;28;20630;-81
2020/12/18 03:49:09;;;;;;;100.90;53.03;;;;;;;2.03;100.00;99931.94;2112695;28;20217;-80
2020/12/18 03:50:23;;;;;;;96.15;52.22;;;;;;;2.03;100.00;99929.31;2115392;28;20228;-77
2020/12/18 03:51:29;;;;;;;105.30;54.55;;;;;;;1.98;100.00;99923.88;2114531;28;20225;-79
2020/12/18 03:52:30;;;;;;;100.50;53.13;;;;;;;2.02;100.00;99921.66;2110159;28;20226;-81
2020/12/18 03:53:31;;;;;;;106.57;53.92;;;;;;;2.03;100.00;99929.31;2105575;28;20222;-81
2020/12/18 03:54:53;;;;;;;102.32;53.75;;;;;;;2.02;100.00;99924.28;2107600;28;20217;-77
2020/12/18 03:56:26;;;;;;;100.82;51.88;;;;;;;1.98;100.00;99923.88;2118031;27;20204;-81
2020/12/18 03:57:46;;;;;;;105.93;53.08;;;;;;;1.94;100.00;99922.72;2128952;27;20224;-82
2020/12/18 03:59:10;;;;;;;103.07;53.70;;;;;;;1.93;100.00;99927.19;2106636;28;20282;-81
2020/12/18 04:00:30;;;;;;;95.95;50.67;;;;;;;1.95;100.00;99914.63;2111379;28;20216;-81
2020/12/18 04:01:40;;;;;;;98.72;51.63;;;;;;;1.91;100.00;99918.72;2103887;28;20295;-81
2020/12/18 04:02:41;;;;;;;96.07;51.38;;;;;;;1.98;100.00;99935.22;2103910;28;20403;-81
2020/12/18 04:03:45;;;;;;;93.30;50.03;;;;;;;2.01;100.00;99923.47;2113242;28;20221;-81
2020/12/18 04:04:46;;;;;;;96.80;52.15;;;;;;;1.98;100.00;99929.16;2112975;28;20232;-81
2020/12/18 04:05:47;;;;;;;91.33;51.53;;;;;;;2.01;100.00;99933.19;2112995;28;20236;-82
2020/12/18 04:06:49;;;;;;;95.18;50.85;;;;;;;1.95;100.00;99922.50;2112304;28;20217;-82
2020/12/18 04:07:50;;;;;;;97.80;53.13;;;;;;;1.97;100.00;99932.81;2112669;28;20307;-82
2020/12/18 04:09:10;;;;;;;87.07;48.42;;;;;;;2.03;100.00;99933.78;2105986;28;20285;-81
2020/12/18 04:10:22;;;;;;;92.68;51.90;;;;;;;2.01;100.00;99933.19;2106401;28;20222;-82
2020/12/18 04:11:44;;;;;;;94.20;51.00;;;;;;;1.99;100.00;99936.81;2116294;27;20235;-81
2020/12/18 04:12:54;;;;;;;95.75;50.50;;;;;;;1.94;100.00;99928.78;2121059;28;20223;-79
2020/12/18 04:13:55;;;;;;;94.43;52.25;;;;;;;1.95;100.00;99934.88;2114114;28;20226;-79
2020/12/18 04:15:00;;;;;;;90.72;49.83;;;;;;;1.89;100.00;99925.19;2114121;28;20249;-82
2020/12/18 04:16:18;;;;;;;92.78;51.67;;;;;;;2.04;100.00;99941.44;2107066;28;20221;-81
2020/12/18 04:17:20;;;;;;;95.40;51.42;;;;;;;2.13;100.00;99940.13;2113582;28;20225;-82
2020/12/18 04:18:25;;;;;;;95.47;51.88;;;;;;;2.09;100.00;99936.34;2121560;28;20224;-81
2020/12/18 04:19:28;;;;;;;92.13;50.30;;;;;;;2.07;100.00;99938.38;2112944;28;20225;-82
2020/12/18 04:20:29;;;;;;;91.88;50.40;;;;;;;2.09;100.00;99940.81;2121775;28;20216;-81
2020/12/18 04:21:50;;;;;;;95.72;51.65;;;;;;;2.04;100.00;99940.66;2121765;27;20216;-82
2020/12/18 04:23:13;;;;;;;93.25;48.85;;;;;;;2.06;100.00;99930.69;2118332;28;20250;-81
2020/12/18 04:24:33;;;;;;;89.25;48.15;;;;;;;2.09;100.00;99941.59;2120232;27;20290;-82
2020/12/18 04:25:34;;;;;;;91.63;48.67;;;;;;;2.11;100.00;99936.94;2118688;28;20280;-82
2020/12/18 04:26:35;;;;;;;93.10;48.45;;;;;;;2.10;100.00;99935.31;2109940;28;20225;-81
2020/12/18 04:27:38;;;;;;;94.47;48.97;;;;;;;2.10;100.00;99940.59;2111715;28;20233;-81
2020/12/18 04:28:40;;;;;;;96.82;50.45;;;;;;;2.07;100.00;99937.56;2111965;28;20221;-81
2020/12/18 04:29:44;;;;;;;92.55;49.50;;;;;;;2.12;100.00;99943.78;2117895;28;20221;-82
2020/12/18 04:30:47;;;;;;;93.70;49.03;;;;;;;2.14;100.00;99944.38;2109191;28;20296;-83
2020/12/18 04:31:49;;;;;;;96.15;49.45;;;;;;;2.11;100.00;99944.81;2108389;28;20646;-82
2020/12/18 04:32:50;;;;;;;90.82;48.67;;;;;;;2.05;100.00;99948.31;2116991;28;20591;-82
2020/12/18 04:33:51;;;;;;;98.93;50.50;;;;;;;2.04;100.00;99949.34;2117154;28;20243;-82
2020/12/18 04:34:59;;;;;;;94.82;50.38;;;;;;;2.10;100.00;99948.47;2116788;28;20251;-82
2020/12/18 04:36:13;;;;;;;96.32;50.35;;;;;;;2.08;100.00;99953.13;2110241;28;20224;-82
2020/12/18 04:37:15;;;;;;;97.63;51.53;;;;;;;2.11;100.00;99952.72;2117136;28;20695;-82
2020/12/18 04:38:35;;;;;;;97.18;49.67;;;;;;;2.29;100.00;99964.28;2118541;27;20248;-81
2020/12/18 04:39:40;;;;;;;97.15;48.92;;;;;;;2.26;100.00;99961.06;2124720;27;20689;-81
2020/12/18 04:40:41;;;;;;;97.03;49.23;;;;;;;2.20;100.00;99956.66;2115351;28;20231;-81
2020/12/18 04:41:53;;;;;;;89.90;49.35;;;;;;;2.24;100.00;99964.91;2108365;28;20225;-81
2020/12/18 04:42:56;;;;;;;92.60;49.07;;;;;;;2.16;100.00;99957.31;2107376;28;20221;-81
2020/12/18 04:43:57;;;;;;;98.10;49.97;;;;;;;2.18;100.00;99965.81;2107812;28;20229;-80
2020/12/18 04:45:06;;;;;;;89.93;48.92;;;;;;;2.16;100.00;99952.03;2108834;28;20719;-81
2020/12/18 04:46:16;;;;;;;93.57;49.35;;;;;;;2.20;100.00;99956.66;2107699;28;20705;-82
2020/12/18 04:47:19;;;;;;;97.15;49.65;;;;;;;2.14;100.00;99954.91;2111006;28;20278;-81
2020/12/18 04:48:21;;;;;;;99.32;51.65;;;;;;;2.16;100.00;99947.59;2110697;28;20725;-81
2020/12/18 04:49:23;;;;;;;97.13;49.58;;;;;;;2.09;100.00;99946.88;2110179;28;20224;-75
2020/12/18 04:50:33;;;;;;;93.68;48.70;;;;;;;2.16;100.00;99957.31;2102866;28;20225;-80
2020/12/18 04:52:01;;;;;;;99.00;50.00;;;;;;;2.10;100.00;99943.22;2106868;28;20239;-79
2020/12/18 04:53:12;;;;;;;98.28;49.80;;;;;;;2.13;100.00;99957.75;2119188;28;20223;-81
2020/12/18 04:54:30;;;;;;;89.10;47.58;;;;;;;2.10;100.00;99959.00;2113813;28;20236;-81
2020/12/18 04:55:41;;;;;;;100.18;51.55;;;;;;;2.11;100.00;99959.81;2113187;28;20225;-75
2020/12/18 04:56:55;;;;;;;103.10;51.85;;;;;;;2.12;100.00;99956.97;2122625;27;20231;-78
2020/12/18 04:57:58;;;;;;;94.00;49.47;;;;;;;2.16;100.00;99955.47;2120132;28;20228;-82
2020/12/18 04:59:02;;;;;;;90.47;47.88;;;;;;;2.16;100.00;99958.13;2118044;28;20239;-81
2020/12/18 05:00:20;;;;;;;97.30;49.95;;;;;;;2.17;100.00;99959.75;2111747;28;20217;-81
2020/12/18 05:01:40;;;;;;;92.22;50.72;;;;;;;2.16;100.00;99957.31;2119949;27;20224;-81
2020/12/18 05:02:45;;;;;;;93.57;49.85;;;;;;;2.04;100.00;99949.34;2117000;28;20654;-81
2020/12/18 05:03:47;;;;;;;92.78;49.03;;;;;;;2.08;100.00;99961.03;2107936;28;20224;-81